Malta, Idaho
Current Conditions -  °F | °C
As of 2:53 AM on Sunday 26 Oct 2014 (Local Time) from KBYI Reporting Station
Few Clouds Few Clouds  
Wind Chill: 11°   Ceiling: Unl
Heat Index: 11°   Visibility: 10mi
Dew Point: -3°   Wind: 12mph
Humidity: 38%   Direction: 260°W
Pressure: 29.94"   Gusts: NA
Location:  42.31°N, 113.37°W
Report Text: KBYI 260853Z AUTO 26010KT 10SM FEW120 11/M03 A2994 RMK AO2 SLP106 60000 T01061033 50005
Loading
Personal Weather Stations






























Interactive Weather Map
Tropical Storm Tracking
New forecast layout! Learn more

10-Day Weather Forecast

Advertisements
Track Severe Weather on mobile